ADDS TAF Board (Experimental) INFO Settings
IDs: Format: Expanded Condensed

KDFW - Dallas-Ft Worth Intl, TX, US

Issued at 2325 UTC 30 Jun 2016
Updated at 0045 UTC 01 Jul 2016
Time2353Z 01/01Z 01/02Z 01/03Z 01/04Z 01/05Z 01/06Z 01/07Z 01/08Z 01/09Z 01/10Z 01/11Z 01/12Z 01/13Z
Type OBS PRVL PRVL PRVL PRVL PRVL PRVL PRVL PRVL PRVL PRVL PRVL PRVL PRVL
VIS 10 >6 >6 >6 >6 >6 >6 >6 >6 >6 >6 >6 >6 >6
CIG 300 300 300 300 300 300 300 300 300 300 300 300 300 300
Cover BKN BKN BKN BKN BKN BKN BKN BKN BKN BKN BKN BKN BKN BKN
FltCat VFR VFR VFR VFR VFR VFR VFR VFR VFR VFR VFR VFR VFR VFR
WX -- -- -- -- -- -- -- -- -- -- -- -- -- --
WDir 110 160 160 160 160 160 160 160 160 160 160 160 160 160
WSpd 9 7 7 7 7 7 7 7 7 7 7 7 7 7
WGst -- -- -- -- -- -- -- -- -- -- -- -- -- --
R13/31
XWnd 4 -3 -3 -3 -3 -3 -3 -3 -3 -3 -3 -3 -3 -3
HWnd 8 6 6 6 6 6 6 6 6 6 6 6 6 6
R17/35
XWnd 8 2 2 2 2 2 2 2 2 2 2 2 2 2
HWnd 3 7 7 7 7 7 7 7 7 7 7 7 7 7
R18/36
XWnd 8 2 2 2 2 2 2 2 2 2 2 2 2 2
HWnd 3 7 7 7 7 7 7 7 7 7 7 7 7 7

Raw TAF
KDFW 302325Z 0100/0206 16007KT P6SM FEW060 BKN300

Raw METAR
KDFW 302353Z 11009KT 10SM FEW065 BKN300 34/18 A2991 RMK AO2 SLP119 T03440183 10356 20322 58013 $
KDFW 302253Z 15007KT 10SM SCT070 BKN300 35/18 A2992 RMK AO2 SLP123 T03500178 $
KDFW 302153Z 17009KT 10SM SCT065 BKN300 36/17 A2994 RMK AO2 SLP128 T03560172 $

METAR Board
Radar Display
Forecast Discussion

TAF Board Legend

Potential Impact
Threat None Slight Moderate High
Visibility (sm) ≥5.1 5.1>X≥3 3>X≥1 <1
Ceiling (100 ft) ≥30.1 30.1>X≥10 10>X≥5 <5
Wind Speed (kt) <10 10≤X<20 20≤X<30 ≥30
Wind Gust (kt) <15 15≤X<25 25≤X<35 ≥35
Weather No Wx Reported VCTS,-TS,-FZRA,SN TS,FZRA +TS,+FZRA,+SN